Time;durP1;ratioP1;P1;durP2;ratioP2;P2;SDS_P1;SDS_P2;PMS_P1;PMS_P2;Temp;Humidity;BMP_temperature;BMP_pressure;BME280_temperature;BME280_humidity;BME280_pressure;Samples;Min_cycle;Max_cycle;Signal;HPM_P1;HPM_P2
2023/04/16 00:04:51;;;;;;;11.97;10.73;;;;;;;11.38;51.85;99793.88;10431741;28;20312;-71
2023/04/16 00:09:53;;;;;;;12.57;11.33;;;;;;;10.60;52.23;99765.91;10433320;28;20311;-72
2023/04/16 00:14:54;;;;;;;13.10;10.53;;;;;;;12.07;48.96;99819.31;10436006;28;20247;-72
2023/04/16 00:19:56;;;;;;;11.83;10.50;;;;;;;11.61;49.55;99790.19;10420965;28;20772;-71
2023/04/16 00:24:58;;;;;;;11.37;10.17;;;;;;;11.92;49.66;99818.56;10446072;28;20220;-71
2023/04/16 00:29:59;;;;;;;12.40;11.07;;;;;;;12.05;48.67;99823.22;10436382;28;20263;-72
2023/04/16 00:35:01;;;;;;;12.13;10.93;;;;;;;12.21;48.83;99822.91;10424921;28;20236;-72
2023/04/16 00:40:04;;;;;;;11.40;10.20;;;;;;;14.12;46.11;99939.91;10433468;28;20730;-72
2023/04/16 00:45:06;;;;;;;11.83;10.63;;;;;;;12.46;47.91;99804.53;10431167;28;20237;-71
2023/04/16 00:50:09;;;;;;;12.37;10.90;;;;;;;12.15;49.00;99813.81;10440963;28;20232;-71
2023/04/16 00:55:12;;;;;;;11.50;10.30;;;;;;;11.94;48.75;99795.06;10437504;28;20236;-71
2023/04/16 01:00:14;;;;;;;11.57;10.37;;;;;;;12.51;47.99;99823.59;10436924;28;20227;-71
2023/04/16 01:05:15;;;;;;;12.37;11.07;;;;;;;11.35;49.61;99762.09;10440721;28;20603;-72
2023/04/16 01:10:17;;;;;;;12.10;10.27;;;;;;;9.98;52.59;99751.81;10432458;28;20235;-72
2023/04/16 01:15:19;;;;;;;11.30;10.20;;;;;;;9.67;53.23;99739.38;10443702;28;20224;-72
2023/04/16 01:20:20;;;;;;;11.57;10.40;;;;;;;10.37;52.94;99822.97;10442433;28;20734;-71
2023/04/16 01:25:22;;;;;;;11.73;10.37;;;;;;;9.98;52.85;99783.09;10436694;28;20228;-72
2023/04/16 01:30:24;;;;;;;10.83;9.73;;;;;;;11.75;50.38;99834.91;10436143;28;20227;-72
2023/04/16 01:35:26;;;;;;;9.93;8.93;;;;;;;12.21;49.07;99843.56;10435135;28;20239;-72
2023/04/16 01:40:28;;;;;;;10.87;9.77;;;;;;;11.90;49.67;99842.06;10436123;28;20620;-72
2023/04/16 01:45:33;;;;;;;10.20;9.13;;;;;;;11.43;50.06;99807.53;10436506;28;20223;-72
2023/04/16 01:50:35;;;;;;;10.00;9.00;;;;;;;11.02;50.96;99793.88;10438712;28;20231;-71
2023/04/16 01:55:36;;;;;;;9.60;8.60;;;;;;;12.15;49.48;99864.78;10434390;28;20232;-72
2023/04/16 02:00:38;;;;;;;9.83;8.63;;;;;;;13.04;47.84;99917.09;10431747;28;20239;-72
2023/04/16 02:05:40;;;;;;;10.30;8.93;;;;;;;11.84;48.30;99790.00;10435419;28;20339;-71
2023/04/16 02:10:45;;;;;;;9.83;8.83;;;;;;;12.16;48.66;99842.31;10444659;28;20236;-72
2023/04/16 02:15:48;;;;;;;10.23;8.77;;;;;;;13.54;47.00;99919.63;10431061;28;20874;-72
2023/04/16 02:20:50;;;;;;;9.43;8.23;;;;;;;13.32;47.04;99904.66;10434290;28;20232;-72
2023/04/16 02:25:51;;;;;;;10.50;8.57;;;;;;;11.70;48.83;99809.69;10442020;28;20645;-72
2023/04/16 02:30:53;;;;;;;9.03;8.00;;;;;;;11.25;49.14;99772.28;10437595;28;20328;-72
2023/04/16 02:35:55;;;;;;;9.00;8.10;;;;;;;13.26;46.75;99908.91;10431230;28;20802;-72
2023/04/16 02:40:56;;;;;;;8.67;7.77;;;;;;;12.41;47.69;99859.81;10433331;28;20247;-72
2023/04/16 02:45:58;;;;;;;10.20;8.00;;;;;;;12.68;47.72;99871.59;10442010;28;20240;-72
2023/04/16 02:51:01;;;;;;;8.77;7.63;;;;;;;12.07;47.90;99808.59;10435940;28;20229;-72
2023/04/16 02:56:03;;;;;;;10.00;8.43;;;;;;;11.40;49.81;99820.47;10440250;28;20753;-72
2023/04/16 03:01:04;;;;;;;9.97;8.57;;;;;;;11.94;48.65;99840.66;10430974;28;20228;-72
2023/04/16 03:06:06;;;;;;;9.07;8.03;;;;;;;10.39;51.60;99771.97;10417357;28;20223;-72
2023/04/16 03:11:08;;;;;;;11.13;7.37;;;;;;;11.98;49.62;99853.47;10402608;28;20725;-72
2023/04/16 03:16:09;;;;;;;9.00;7.20;;;;;;;11.64;48.94;99835.38;10437547;28;20851;-72
2023/04/16 03:21:11;;;;;;;10.10;7.90;;;;;;;10.74;50.96;99823.13;10416232;28;20236;-72
2023/04/16 03:26:13;;;;;;;8.77;7.47;;;;;;;11.85;49.06;99847.16;10431942;28;20764;-72
2023/04/16 03:31:15;;;;;;;8.40;7.37;;;;;;;12.63;47.73;99880.25;10433315;28;20227;-72
2023/04/16 03:36:17;;;;;;;9.37;7.60;;;;;;;10.82;50.07;99798.97;10430740;28;20906;-72
2023/04/16 03:41:18;;;;;;;9.73;7.90;;;;;;;12.10;49.13;99864.53;10428774;28;20248;-72
2023/04/16 03:46:20;;;;;;;10.03;7.93;;;;;;;10.44;50.78;99794.47;10437516;28;20224;-72
2023/04/16 03:51:22;;;;;;;10.10;7.80;;;;;;;10.97;50.35;99842.63;10439453;28;20702;-71
2023/04/16 03:56:23;;;;;;;8.23;7.33;;;;;;;12.17;48.64;99888.72;10444176;28;20252;-71
2023/04/16 04:01:25;;;;;;;9.03;7.50;;;;;;;10.96;49.87;99827.56;10440729;28;20251;-71
2023/04/16 04:06:27;;;;;;;9.13;7.83;;;;;;;11.23;48.94;99820.69;10440258;28;20235;-72
2023/04/16 04:11:29;;;;;;;9.43;7.90;;;;;;;11.00;49.53;99828.88;10437366;28;20236;-72
2023/04/16 04:16:31;;;;;;;9.17;7.37;;;;;;;11.20;49.91;99855.91;10445983;28;20227;-72
2023/04/16 04:21:33;;;;;;;7.93;6.73;;;;;;;11.00;49.96;99842.25;10438801;28;20619;-72
2023/04/16 04:26:34;;;;;;;9.73;7.60;;;;;;;11.45;49.22;99883.19;10431375;28;20758;-72
2023/04/16 04:31:36;;;;;;;8.60;7.43;;;;;;;10.36;51.03;99824.03;10437064;28;20661;-72
2023/04/16 04:36:38;;;;;;;8.63;7.27;;;;;;;11.53;49.26;99889.47;10428627;28;20246;-71
2023/04/16 04:41:39;;;;;;;9.33;8.27;;;;;;;11.96;49.22;99924.41;10425773;28;20289;-71
2023/04/16 04:46:41;;;;;;;10.33;8.53;;;;;;;10.81;49.47;99846.31;10430516;28;20227;-71
2023/04/16 04:51:43;;;;;;;10.93;8.67;;;;;;;11.40;50.19;99908.88;10432299;28;20231;-71
2023/04/16 04:56:45;;;;;;;10.53;9.30;;;;;;;11.18;49.96;99894.59;10430750;28;20604;-71
2023/04/16 05:01:47;;;;;;;10.17;8.57;;;;;;;11.93;48.96;99939.03;10430568;28;20220;-71
2023/04/16 05:06:49;;;;;;;11.43;9.10;;;;;;;11.10;50.24;99895.50;10427140;28;20624;-71
2023/04/16 05:11:50;;;;;;;10.67;9.10;;;;;;;10.49;50.96;99880.38;10428996;28;20231;-71
2023/04/16 05:16:52;;;;;;;11.97;9.53;;;;;;;10.23;51.32;99869.28;10426697;28;20211;-71
2023/04/16 05:21:54;;;;;;;12.40;8.93;;;;;;;10.64;50.89;99901.81;10427601;28;20323;-72
2023/04/16 05:26:56;;;;;;;10.57;9.13;;;;;;;11.31;50.01;99947.53;10431222;28;20594;-72
2023/04/16 05:31:58;;;;;;;10.37;8.73;;;;;;;11.44;49.39;99937.81;10433884;28;20227;-72
2023/04/16 05:37:00;;;;;;;11.17;8.87;;;;;;;11.12;49.78;99940.84;10430494;28;20244;-71
2023/04/16 05:42:02;;;;;;;10.90;8.80;;;;;;;10.99;49.88;99926.25;10426842;28;20243;-71
2023/04/16 05:47:03;;;;;;;11.17;9.30;;;;;;;12.21;47.65;100004.53;10429364;28;20243;-71
2023/04/16 05:52:06;;;;;;;10.63;8.57;;;;;;;11.81;48.04;99957.47;10430991;28;20242;-71
2023/04/16 05:57:07;;;;;;;10.57;8.63;;;;;;;12.46;47.91;100019.25;10435277;28;20239;-71
2023/04/16 06:02:09;;;;;;;12.50;8.70;;;;;;;12.43;48.17;100014.25;10438180;28;20242;-71
2023/04/16 06:07:11;;;;;;;11.43;8.57;;;;;;;11.12;50.35;99962.28;10427489;28;20240;-72
2023/04/16 06:12:13;;;;;;;12.03;9.13;;;;;;;12.89;47.88;100067.59;10423757;28;20242;-72
2023/04/16 06:17:15;;;;;;;11.80;10.00;;;;;;;12.60;48.71;100052.44;10430612;28;20893;-72
2023/04/16 06:22:17;;;;;;;11.80;9.87;;;;;;;11.37;50.38;100003.88;10428690;28;20611;-71
2023/04/16 06:27:18;;;;;;;12.43;9.50;;;;;;;12.43;48.44;100049.13;10432992;28;20236;-72
2023/04/16 06:32:20;;;;;;;13.33;10.67;;;;;;;10.35;51.26;99923.16;10414588;28;20233;-72
2023/04/16 06:37:22;;;;;;;11.63;9.23;;;;;;;10.77;50.33;99959.28;10431197;28;20754;-72
2023/04/16 06:42:23;;;;;;;10.70;8.83;;;;;;;11.75;48.77;99993.06;10414363;28;20285;-72
2023/04/16 06:47:25;;;;;;;11.90;9.30;;;;;;;11.90;48.56;100027.09;10435530;28;20227;-72
2023/04/16 06:52:28;;;;;;;9.90;8.40;;;;;;;12.72;47.25;100068.88;10432990;28;20715;-72
2023/04/16 06:57:29;;;;;;;12.27;9.00;;;;;;;11.71;48.21;99969.50;10437168;28;20228;-71
2023/04/16 07:02:31;;;;;;;12.70;9.17;;;;;;;11.36;48.95;99937.91;10432659;28;20854;-72
2023/04/16 07:07:33;;;;;;;10.57;8.73;;;;;;;11.61;48.69;99996.56;10435577;28;20300;-71
2023/04/16 07:12:35;;;;;;;9.73;8.13;;;;;;;11.28;49.88;99996.94;10439080;28;20338;-72
2023/04/16 07:17:37;;;;;;;9.97;7.93;;;;;;;12.11;48.08;100027.13;10428065;28;20231;-71
2023/04/16 07:22:38;;;;;;;9.83;8.13;;;;;;;11.35;49.13;99992.50;10441791;28;20254;-71
2023/04/16 07:27:40;;;;;;;9.50;8.10;;;;;;;10.54;50.73;99962.78;10440471;28;20236;-71
2023/04/16 07:32:41;;;;;;;8.97;7.60;;;;;;;11.17;49.16;99992.88;10443353;28;20303;-71
2023/04/16 07:37:43;;;;;;;9.40;7.60;;;;;;;10.74;49.95;99983.72;10435830;28;20285;-71
2023/04/16 07:42:45;;;;;;;8.93;6.67;;;;;;;10.76;49.66;99984.38;10435226;28;20625;-71
2023/04/16 07:47:47;;;;;;;9.33;7.20;;;;;;;10.89;49.28;99996.13;10441948;28;20231;-71
2023/04/16 07:52:49;;;;;;;9.17;7.00;;;;;;;11.29;48.29;100016.50;10442260;28;20710;-72
2023/04/16 07:57:51;;;;;;;8.90;7.33;;;;;;;11.10;49.27;100034.78;10436040;28;20727;-71
2023/04/16 08:02:52;;;;;;;11.50;7.30;;;;;;;11.16;48.24;100020.66;10428646;28;20237;-71
2023/04/16 08:07:54;;;;;;;8.07;6.40;;;;;;;11.05;48.29;100016.59;10435926;28;20749;-66
2023/04/16 08:12:56;;;;;;;8.80;7.20;;;;;;;10.38;49.38;99986.97;10429023;28;20247;-67
2023/04/16 08:17:58;;;;;;;8.67;6.87;;;;;;;11.41;48.16;100071.31;10442893;28;20227;-66
2023/04/16 08:23:00;;;;;;;8.73;6.83;;;;;;;11.99;47.10;100080.41;10435207;28;20291;-71
2023/04/16 08:28:01;;;;;;;9.03;6.37;;;;;;;12.74;46.40;100145.53;10437282;28;20256;-71
2023/04/16 08:33:03;;;;;;;8.77;6.30;;;;;;;13.45;44.53;100122.44;10440517;28;20245;-71
2023/04/16 08:38:06;;;;;;;9.47;6.17;;;;;;;11.29;47.61;100046.84;10427643;28;20568;-71
2023/04/16 08:43:12;;;;;;;8.50;6.90;;;;;;;10.83;47.59;99979.97;10434467;28;20242;-71
2023/04/16 08:48:14;;;;;;;8.67;6.87;;;;;;;12.07;47.46;100084.03;10438857;28;20733;-71
2023/04/16 08:53:18;;;;;;;9.47;7.80;;;;;;;11.57;46.81;100036.28;10438998;28;20240;-71
2023/04/16 08:58:21;;;;;;;9.53;7.43;;;;;;;10.20;50.09;100014.03;10436295;28;20236;-71
2023/04/16 09:03:23;;;;;;;16.57;8.27;;;;;;;10.16;49.61;100008.22;10441351;28;20238;-71
2023/04/16 09:08:25;;;;;;;8.80;7.30;;;;;;;11.19;48.21;100017.63;10434426;28;20235;-70
2023/04/16 09:13:27;;;;;;;10.43;8.07;;;;;;;12.04;47.98;100114.72;10431258;28;20633;-70
2023/04/16 09:18:30;;;;;;;11.67;7.47;;;;;;;11.76;47.83;100088.56;10444043;28;20232;-70
2023/04/16 09:23:31;;;;;;;11.03;7.50;;;;;;;10.98;48.96;100058.47;10427032;28;20236;-70
2023/04/16 09:28:44;;;;;;;10.10;8.20;;;;;;;9.80;50.43;100007.84;10436531;28;20769;-70
2023/04/16 09:34:05;;;;;;;9.30;7.23;;;;;;;11.15;48.39;100080.59;10438967;28;20228;-70
2023/04/16 09:39:18;;;;;;;9.33;6.73;;;;;;;11.58;47.80;100112.19;10442931;28;20963;-70
2023/04/16 09:44:34;;;;;;;10.57;7.63;;;;;;;13.20;45.48;100187.31;10430243;28;20854;-70
2023/04/16 09:49:42;;;;;;;9.00;6.83;;;;;;;11.75;47.17;100083.41;10431212;28;20228;-70
2023/04/16 09:54:52;;;;;;;9.90;7.87;;;;;;;12.93;46.38;100164.75;10437162;28;20231;-70
2023/04/16 10:00:00;;;;;;;9.37;7.30;;;;;;;12.41;46.93;100141.63;10429990;28;20232;-70
2023/04/16 10:05:02;;;;;;;9.73;7.37;;;;;;;12.57;45.76;100137.88;10426292;28;20330;-70
2023/04/16 10:10:05;;;;;;;9.60;7.00;;;;;;;12.53;47.35;100146.31;10429764;28;20346;-70
2023/04/16 10:15:06;;;;;;;8.40;6.50;;;;;;;12.37;46.71;100125.88;10427538;28;20274;-70
2023/04/16 10:20:08;;;;;;;9.53;6.57;;;;;;;12.61;46.24;100150.75;10433180;28;20227;-70
2023/04/16 10:25:10;;;;;;;8.40;6.80;;;;;;;13.14;44.77;100137.03;10427084;28;20235;-71
2023/04/16 10:30:14;;;;;;;10.60;7.33;;;;;;;11.86;47.92;100092.81;10428699;28;20239;-71
2023/04/16 10:35:20;;;;;;;8.93;7.10;;;;;;;12.36;47.96;100131.44;10434212;28;20241;-71
2023/04/16 10:40:23;;;;;;;9.03;6.87;;;;;;;11.79;48.78;100115.03;10434027;28;20262;-71
2023/04/16 10:45:29;;;;;;;7.27;6.17;;;;;;;11.60;49.22;100108.31;10438833;28;20232;-71
2023/04/16 10:50:34;;;;;;;7.77;6.50;;;;;;;10.81;50.74;100067.66;10439028;28;20236;-71
2023/04/16 10:55:38;;;;;;;8.30;6.70;;;;;;;12.31;48.21;100129.31;10440190;28;20234;-71
2023/04/16 11:06:32;;;;;;;9.23;7.20;;;;;;;8.16;56.88;100160.75;10470546;27;20312;-69
2023/04/16 11:11:38;;;;;;;9.10;6.70;;;;;;;8.66;56.83;100182.13;10464816;28;20273;-67
2023/04/16 11:16:40;;;;;;;9.87;6.60;;;;;;;8.37;56.85;100163.88;10456031;28;20232;-66
2023/04/16 11:21:44;;;;;;;8.60;6.83;;;;;;;8.73;56.34;100184.16;10503880;28;20239;-67
2023/04/16 11:26:50;;;;;;;8.13;6.67;;;;;;;9.30;55.84;100204.78;10451546;28;20212;-64
2023/04/16 11:31:52;;;;;;;8.57;6.83;;;;;;;9.27;56.45;100221.16;10453375;28;20238;-66
2023/04/16 11:36:54;;;;;;;8.83;7.07;;;;;;;8.70;58.17;100195.16;10451392;28;20207;-63
2023/04/16 11:41:56;;;;;;;9.07;6.77;;;;;;;8.27;59.21;100161.31;10461011;28;20236;-62
2023/04/16 11:47:05;;;;;;;9.53;7.27;;;;;;;8.80;59.15;100219.84;10447916;28;20199;-62
2023/04/16 11:52:06;;;;;;;10.60;7.43;;;;;;;8.99;58.97;100213.44;10455735;28;20231;-66
2023/04/16 11:57:08;;;;;;;8.57;7.13;;;;;;;7.89;59.75;100150.13;10497302;28;20721;-66
2023/04/16 12:02:10;;;;;;;7.87;6.43;;;;;;;8.06;59.73;100171.53;10505171;28;20234;-62
2023/04/16 12:07:13;;;;;;;8.67;6.90;;;;;;;9.36;57.85;100231.66;10498850;28;20232;-63
2023/04/16 12:12:29;;;;;;;8.80;7.40;;;;;;;8.89;58.71;100218.91;10500337;28;20274;-65
2023/04/16 12:17:33;;;;;;;7.37;6.57;;;;;;;9.02;57.79;100221.94;10432629;28;20774;-62
2023/04/16 12:22:37;;;;;;;7.87;5.90;;;;;;;10.63;55.33;100325.69;10422870;28;20234;-63
2023/04/16 12:27:51;;;;;;;7.23;6.03;;;;;;;11.11;53.97;100306.13;10427336;28;20328;-63
2023/04/16 12:33:14;;;;;;;9.70;6.70;;;;;;;9.39;57.36;100220.66;10424305;28;20593;-61
2023/04/16 12:38:16;;;;;;;8.27;5.97;;;;;;;10.86;55.14;100322.28;10415056;28;20298;-63
2023/04/16 12:43:19;;;;;;;7.63;6.17;;;;;;;10.98;54.72;100331.59;10424155;28;20236;-66
2023/04/16 12:48:21;;;;;;;7.87;7.07;;;;;;;9.42;56.74;100235.53;10431487;28;20613;-66
2023/04/16 12:53:23;;;;;;;8.53;6.27;;;;;;;9.62;57.33;100248.56;10425633;28;20241;-65
2023/04/16 12:58:25;;;;;;;7.03;6.33;;;;;;;11.45;54.44;100370.91;10416136;28;20237;-65
2023/04/16 13:03:26;;;;;;;8.03;6.30;;;;;;;10.32;57.30;100309.53;10424794;28;20227;-66
2023/04/16 13:08:30;;;;;;;7.80;5.83;;;;;;;9.81;58.48;100293.66;10425130;28;20232;-66
2023/04/16 13:13:32;;;;;;;9.10;6.87;;;;;;;10.55;57.36;100331.06;10412934;28;20240;-65
2023/04/16 13:18:38;;;;;;;8.37;6.07;;;;;;;8.30;60.35;100202.81;10422728;28;20630;-65
2023/04/16 13:23:39;;;;;;;6.97;5.60;;;;;;;9.33;59.09;100252.53;10422673;28;20239;-64
2023/04/16 13:28:41;;;;;;;6.60;5.77;;;;;;;10.67;57.30;100351.09;10428372;28;20231;-65
2023/04/16 13:33:43;;;;;;;7.30;5.27;;;;;;;8.70;61.18;100245.84;10431193;28;20890;-64
2023/04/16 13:38:45;;;;;;;6.63;5.93;;;;;;;9.46;60.11;100298.31;10422419;28;20232;-64
2023/04/16 13:43:46;;;;;;;6.23;5.23;;;;;;;9.18;59.83;100284.38;10424557;28;20239;-64
2023/04/16 13:48:48;;;;;;;6.43;5.17;;;;;;;9.14;59.35;100286.53;10410252;28;20238;-65
2023/04/16 13:53:50;;;;;;;6.83;5.40;;;;;;;10.80;55.65;100390.75;10412331;28;20254;-65
2023/04/16 13:58:51;;;;;;;5.83;5.00;;;;;;;9.50;58.25;100302.34;10415758;28;20258;-66
2023/04/16 14:03:53;;;;;;;7.23;5.63;;;;;;;9.16;59.11;100294.41;10413520;28;20262;-64
2023/04/16 14:08:56;;;;;;;7.27;6.10;;;;;;;10.75;56.50;100397.59;10423644;28;20353;-64
2023/04/16 14:13:58;;;;;;;13.43;5.87;;;;;;;10.01;57.41;100353.03;10426918;28;20241;-65
2023/04/16 14:19:00;;;;;;;7.00;6.30;;;;;;;10.49;55.86;100390.59;10427964;28;20224;-62
2023/04/16 14:24:02;;;;;;;9.60;7.03;;;;;;;9.48;58.26;100315.00;10432086;28;20231;-63
2023/04/16 14:29:04;;;;;;;8.43;7.00;;;;;;;9.80;58.29;100352.63;10422976;28;20228;-63
2023/04/16 14:34:06;;;;;;;8.93;6.53;;;;;;;10.73;56.68;100423.69;10423687;28;20240;-66
2023/04/16 14:39:08;;;;;;;8.20;6.60;;;;;;;9.96;57.30;100360.72;10424520;28;20303;-67
2023/04/16 14:44:10;;;;;;;10.57;7.80;;;;;;;11.63;54.00;100490.47;10419407;28;20287;-64
2023/04/16 14:49:12;;;;;;;9.07;7.17;;;;;;;9.77;57.72;100359.16;10423505;28;20228;-66
2023/04/16 14:54:14;;;;;;;10.03;8.50;;;;;;;9.47;58.22;100345.41;10417886;28;20227;-64
2023/04/16 14:59:16;;;;;;;9.43;7.07;;;;;;;9.56;58.08;100357.75;10418968;28;20235;-64
2023/04/16 15:04:18;;;;;;;11.20;8.30;;;;;;;10.79;56.46;100447.16;10419225;28;20806;-65
2023/04/16 15:09:20;;;;;;;8.83;7.47;;;;;;;10.38;56.82;100428.38;10414153;28;20236;-63
2023/04/16 15:14:22;;;;;;;9.97;8.50;;;;;;;10.39;56.82;100425.56;10420411;28;20251;-65
2023/04/16 15:19:27;;;;;;;10.27;8.77;;;;;;;10.11;56.92;100387.63;10417490;28;20779;-62
2023/04/16 15:24:28;;;;;;;11.53;8.97;;;;;;;9.48;57.70;100330.19;10423185;28;20328;-64
2023/04/16 15:29:30;;;;;;;12.50;9.77;;;;;;;9.88;58.30;100392.78;10420322;28;20232;-63
2023/04/16 15:34:32;;;;;;;11.57;8.97;;;;;;;10.45;56.99;100427.56;10430768;28;20228;-65
2023/04/16 15:39:33;;;;;;;10.97;8.90;;;;;;;10.71;56.50;100453.28;10418786;28;20226;-62
2023/04/16 15:44:35;;;;;;;12.00;9.40;;;;;;;11.00;56.29;100468.00;10420965;28;20232;-61
2023/04/16 15:49:37;;;;;;;11.30;8.83;;;;;;;10.90;55.91;100470.91;10413557;28;20235;-61
2023/04/16 15:54:39;;;;;;;11.87;9.23;;;;;;;11.48;55.83;100521.66;10429860;28;20243;-63
2023/04/16 15:59:41;;;;;;;11.63;9.90;;;;;;;11.58;55.30;100509.72;10435432;28;20235;-65
2023/04/16 16:04:48;;;;;;;10.97;9.13;;;;;;;9.50;58.77;100344.22;10428989;28;20233;-65
2023/04/16 16:09:51;;;;;;;11.00;9.10;;;;;;;10.78;55.88;100437.44;10427937;28;20243;-67
2023/04/16 16:14:54;;;;;;;11.97;9.43;;;;;;;11.34;55.13;100486.53;10432457;28;20248;-67
2023/04/16 16:19:57;;;;;;;12.90;9.57;;;;;;;12.73;52.89;100497.50;10434750;28;20236;-67
2023/04/16 16:24:59;;;;;;;11.97;9.40;;;;;;;13.00;52.64;100503.28;10422503;28;20223;-67
2023/04/16 16:30:03;;;;;;;11.73;9.40;;;;;;;12.86;53.04;100460.09;10430280;28;20256;-66
2023/04/16 16:35:07;;;;;;;12.50;10.17;;;;;;;13.32;51.22;100485.19;10423949;28;20267;-67
2023/04/16 16:40:09;;;;;;;12.93;10.43;;;;;;;11.92;54.32;100384.38;10433605;28;20605;-67
2023/04/16 16:45:12;;;;;;;12.47;9.83;;;;;;;13.41;50.41;100435.66;10426565;28;20662;-67
2023/04/16 16:50:15;;;;;;;11.80;9.83;;;;;;;14.47;49.74;100479.06;10421919;28;20281;-69
2023/04/16 16:55:17;;;;;;;10.77;9.33;;;;;;;13.07;51.41;100369.88;10421403;28;20239;-68
2023/04/16 17:00:20;;;;;;;13.57;9.63;;;;;;;14.13;49.20;100385.59;10425680;28;20220;-67
2023/04/16 17:05:22;;;;;;;12.70;9.80;;;;;;;14.73;48.87;100402.22;10424704;28;20252;-68
2023/04/16 17:10:24;;;;;;;13.00;9.67;;;;;;;15.67;46.78;100368.47;10420918;28;20279;-66
2023/04/16 17:15:25;;;;;;;13.37;10.67;;;;;;;14.66;48.61;100288.19;10425176;28;20703;-68
2023/04/16 17:20:27;;;;;;;17.33;14.10;;;;;;;14.59;48.94;100288.16;10418454;28;20247;-71
2023/04/16 17:25:29;;;;;;;13.87;9.83;;;;;;;13.06;52.28;100188.22;10427056;28;20230;-71
2023/04/16 17:30:31;;;;;;;12.37;10.77;;;;;;;13.21;51.74;100205.13;10418665;28;20232;-71
2023/04/16 17:35:33;;;;;;;13.50;10.63;;;;;;;13.01;52.00;100187.94;10411655;28;20235;-71
2023/04/16 17:40:34;;;;;;;12.80;10.10;;;;;;;12.86;52.88;100221.06;10399367;22;20355;-37
2023/04/16 17:45:36;;;;;;;12.83;10.40;;;;;;;11.11;57.35;100167.69;10285721;28;20345;-39
2023/04/16 17:50:38;;;;;;;12.03;9.20;;;;;;;12.90;54.23;100281.44;10272072;28;20230;-39
2023/04/16 17:55:49;;;;;;;12.83;9.97;;;;;;;12.67;54.06;100229.69;10272600;28;20227;-39
2023/04/16 18:00:51;;;;;;;13.87;11.17;;;;;;;13.37;51.47;100263.19;10269854;28;20231;-40
2023/04/16 18:05:53;;;;;;;12.27;10.27;;;;;;;14.61;49.85;100329.22;10306323;28;20310;-41
2023/04/16 18:10:55;;;;;;;11.77;9.63;;;;;;;14.06;49.88;100285.13;10310246;28;20235;-39
2023/04/16 18:15:57;;;;;;;12.63;10.90;;;;;;;13.02;51.79;100220.00;10315880;28;20246;-39
2023/04/16 18:20:59;;;;;;;12.53;10.03;;;;;;;14.02;50.40;100288.19;10310182;28;20240;-39
2023/04/16 18:26:01;;;;;;;14.30;11.57;;;;;;;13.18;52.03;100227.00;10309401;28;20242;-37
2023/04/16 18:31:05;;;;;;;16.70;13.00;;;;;;;13.73;51.70;100261.44;10307943;28;20235;-37
2023/04/16 18:36:07;;;;;;;19.30;12.50;;;;;;;13.18;51.89;100232.38;10313969;28;20762;-39
2023/04/16 18:41:18;;;;;;;17.80;12.33;;;;;;;14.18;50.77;100305.09;10305457;28;20246;-39
2023/04/16 18:46:20;;;;;;;18.17;13.00;;;;;;;14.21;50.34;100310.09;10302721;28;20226;-39
2023/04/16 18:51:22;;;;;;;13.50;10.80;;;;;;;11.74;54.69;100151.41;10314220;28;20695;-39
2023/04/16 18:56:23;;;;;;;17.73;12.47;;;;;;;11.12;57.16;100219.38;10308727;28;20695;-39
2023/04/16 19:01:25;;;;;;;18.77;13.40;;;;;;;11.39;56.33;100239.50;10304327;28;20232;-39
2023/04/16 19:06:28;;;;;;;15.77;12.13;;;;;;;11.64;55.75;100256.22;10306854;28;20316;-39
2023/04/16 19:11:29;;;;;;;15.00;11.80;;;;;;;10.26;58.89;100184.47;10308684;28;20234;-39
2023/04/16 19:16:31;;;;;;;14.83;12.20;;;;;;;10.66;58.74;100242.38;10307662;28;20236;-39
2023/04/16 19:21:34;;;;;;;14.40;11.87;;;;;;;11.27;57.21;100244.41;10310133;28;20233;-39
2023/04/16 19:26:36;;;;;;;18.63;15.47;;;;;;;12.17;54.79;100293.81;10307695;28;20229;-39
2023/04/16 19:31:37;;;;;;;16.77;14.27;;;;;;;10.09;59.42;100162.31;10317785;28;20226;-39
2023/04/16 19:36:40;;;;;;;18.33;14.47;;;;;;;10.76;58.46;100252.88;10318471;28;20229;-39
2023/04/16 19:41:41;;;;;;;19.40;14.90;;;;;;;11.91;55.99;100321.03;10311445;28;20233;-39
2023/04/16 19:46:43;;;;;;;16.03;12.83;;;;;;;10.60;58.29;100234.22;10313271;28;20226;-39
2023/04/16 19:51:45;;;;;;;15.63;12.30;;;;;;;11.34;57.98;100312.38;10311588;28;20598;-39
2023/04/16 19:56:50;;;;;;;17.37;13.83;;;;;;;11.71;55.94;100315.31;10320632;28;20618;-39
2023/04/16 20:01:52;;;;;;;17.03;13.13;;;;;;;11.82;55.71;100331.00;10317306;28;20205;-39
2023/04/16 20:06:53;;;;;;;16.97;12.33;;;;;;;11.27;56.75;100308.69;10310688;28;20234;-39
2023/04/16 20:11:56;;;;;;;18.17;12.40;;;;;;;11.39;56.95;100328.75;10309016;28;20225;-39
2023/04/16 20:16:58;;;;;;;15.43;11.80;;;;;;;11.20;56.12;100291.66;10308270;28;20328;-39
2023/04/16 20:22:00;;;;;;;16.90;13.40;;;;;;;12.66;53.41;100389.97;10311112;28;23605;-39
2023/04/16 20:27:02;;;;;;;17.93;12.83;;;;;;;13.91;51.04;100444.75;10313844;28;20678;-39
2023/04/16 20:32:05;;;;;;;17.40;13.53;;;;;;;13.23;51.82;100385.81;10315860;28;20668;-39
2023/04/16 20:37:06;;;;;;;20.20;14.87;;;;;;;12.78;53.10;100354.63;10313297;28;20239;-40
2023/04/16 20:42:09;;;;;;;18.90;13.77;;;;;;;13.34;51.29;100381.81;10312335;28;20222;-39
2023/04/16 20:47:14;;;;;;;16.23;13.13;;;;;;;13.84;51.09;100408.88;10314311;28;20371;-40
2023/04/16 20:52:15;;;;;;;15.20;12.30;;;;;;;14.20;50.15;100413.38;10311363;28;20234;-39
2023/04/16 20:57:17;;;;;;;17.50;13.20;;;;;;;14.02;50.44;100390.44;10315458;28;20245;-38
2023/04/16 21:02:19;;;;;;;17.90;13.40;;;;;;;14.27;49.85;100406.19;10314421;28;20630;-39
2023/04/16 21:07:21;;;;;;;17.10;14.00;;;;;;;14.01;50.13;100374.47;10310504;28;20321;-39
2023/04/16 21:12:23;;;;;;;21.50;15.80;;;;;;;13.74;50.75;100350.00;10316481;28;20226;-39
2023/04/16 21:17:24;;;;;;;19.03;14.97;;;;;;;13.76;51.41;100347.13;10309164;28;20240;-39
2023/04/16 21:22:26;;;;;;;21.27;15.63;;;;;;;13.08;51.61;100296.34;10310446;28;20296;-39
2023/04/16 21:27:28;;;;;;;19.87;14.87;;;;;;;11.71;54.94;100218.81;10309223;28;20248;-39
2023/04/16 21:32:29;;;;;;;19.30;14.27;;;;;;;11.48;55.60;100205.41;10311654;28;20237;-39
2023/04/16 21:37:31;;;;;;;20.80;15.27;;;;;;;12.37;53.05;100249.31;10310649;28;21244;-39
2023/04/16 21:42:41;;;;;;;19.10;15.10;;;;;;;11.10;56.82;100210.72;10303394;28;20316;-39
2023/04/16 21:47:44;;;;;;;21.20;16.23;;;;;;;11.31;56.38;100250.25;10317678;28;20229;-39
2023/04/16 21:52:46;;;;;;;18.47;14.57;;;;;;;10.86;56.85;100221.38;10308493;28;20230;-39
2023/04/16 21:57:47;;;;;;;20.30;15.70;;;;;;;11.47;55.42;100233.22;10302660;28;20233;-38
2023/04/16 22:02:50;;;;;;;20.07;14.90;;;;;;;11.55;55.91;100254.59;10310141;28;20244;-39
2023/04/16 22:07:52;;;;;;;19.53;15.87;;;;;;;11.86;55.22;100269.78;10308083;28;20238;-39
2023/04/16 22:12:53;;;;;;;20.37;15.47;;;;;;;11.92;54.30;100250.31;10315061;28;20712;-39
2023/04/16 22:17:55;;;;;;;21.90;16.97;;;;;;;12.38;53.69;100287.72;10307074;28;20601;-39
2023/04/16 22:22:57;;;;;;;22.23;17.27;;;;;;;11.17;56.14;100222.38;10311722;28;20896;-39
2023/04/16 22:28:00;;;;;;;23.17;17.83;;;;;;;10.84;56.42;100203.84;10304631;28;20238;-39
2023/04/16 22:33:02;;;;;;;20.07;16.33;;;;;;;11.14;55.55;100207.50;10308578;28;20250;-39
2023/04/16 22:38:04;;;;;;;21.63;16.73;;;;;;;10.24;57.90;100175.81;10311267;28;20615;-38
2023/04/16 22:43:06;;;;;;;23.73;16.90;;;;;;;10.05;58.17;100167.16;10306792;28;20226;-39
2023/04/16 22:48:07;;;;;;;23.53;17.20;;;;;;;10.58;57.96;100221.00;10304064;28;20803;-39
2023/04/16 22:53:09;;;;;;;22.97;18.43;;;;;;;10.06;58.25;100184.06;10311262;28;20229;-38
2023/04/16 22:58:11;;;;;;;23.97;18.23;;;;;;;11.37;55.91;100279.00;10295711;28;20717;-39
2023/04/16 23:03:13;;;;;;;22.30;17.20;;;;;;;10.73;57.40;100241.66;10303813;28;20230;-38
2023/04/16 23:08:15;;;;;;;22.53;17.97;;;;;;;9.93;58.14;100176.56;10304256;28;20683;-39
2023/04/16 23:13:17;;;;;;;26.70;20.10;;;;;;;10.10;58.41;100204.09;10304765;28;20230;-38